createdAt,value
2017-10-30T00:02:14.671Z,2.63
2017-10-30T00:04:42.133Z,2.87
2017-10-30T00:07:09.603Z,2.40
2017-10-30T00:09:37.073Z,2.37
2017-10-30T00:12:04.563Z,3.07
2017-10-30T00:14:32.033Z,2.03
2017-10-30T00:16:59.475Z,2.50
2017-10-30T00:19:26.946Z,2.30
2017-10-30T00:21:54.497Z,2.37
2017-10-30T00:24:21.958Z,2.20
2017-10-30T00:26:49.425Z,1.97
2017-10-30T00:29:16.901Z,2.20
2017-10-30T00:31:44.342Z,2.40
2017-10-30T00:34:11.802Z,2.30
2017-10-30T00:36:40.016Z,2.20
2017-10-30T00:39:08.261Z,2.07
2017-10-30T00:41:35.719Z,2.40
2017-10-30T00:44:03.166Z,2.97
2017-10-30T00:46:30.621Z,1.70
2017-10-30T00:48:58.835Z,1.90
2017-10-30T00:51:26.303Z,2.03
2017-10-30T00:53:54.671Z,1.93
2017-10-30T00:56:22.900Z,2.00
2017-10-30T00:58:50.462Z,2.07
2017-10-30T01:01:18.693Z,2.47
2017-10-30T01:03:46.147Z,2.27
2017-10-30T01:06:13.602Z,1.90
2017-10-30T01:08:41.821Z,2.70
2017-10-30T01:11:09.278Z,1.90
2017-10-30T01:13:37.493Z,1.83
2017-10-30T01:16:04.946Z,1.83
2017-10-30T01:18:33.174Z,1.93
2017-10-30T01:21:00.642Z,1.80
2017-10-30T01:23:28.097Z,2.47
2017-10-30T01:25:55.545Z,1.93
2017-10-30T01:28:23.010Z,2.37
2017-10-30T01:30:50.455Z,1.83
2017-10-30T01:33:17.909Z,2.13
2017-10-30T01:35:45.367Z,2.33
2017-10-30T01:38:12.826Z,2.27
2017-10-30T01:40:40.279Z,2.07
2017-10-30T01:43:07.743Z,1.97
2017-10-30T01:45:35.193Z,2.20
2017-10-30T01:48:02.649Z,2.10
2017-10-30T01:50:30.118Z,1.43
2017-10-30T01:52:57.575Z,2.20
2017-10-30T01:55:25.031Z,1.80
2017-10-30T01:57:52.489Z,1.90
2017-10-30T02:00:19.937Z,2.27
2017-10-30T02:02:47.410Z,1.53
2017-10-30T02:05:14.903Z,2.00
2017-10-30T02:07:43.124Z,1.80
2017-10-30T02:10:10.590Z,2.33
2017-10-30T02:12:38.062Z,1.70
2017-10-30T02:15:05.510Z,2.13
2017-10-30T02:17:32.968Z,1.60
2017-10-30T02:20:00.427Z,2.00
2017-10-30T02:22:27.881Z,2.10
2017-10-30T02:24:55.332Z,1.97
2017-10-30T02:27:22.787Z,2.20
2017-10-30T02:29:50.243Z,2.30
2017-10-30T02:32:17.707Z,1.77
2017-10-30T02:34:45.153Z,2.17
2017-10-30T02:37:12.622Z,1.70
2017-10-30T02:39:40.068Z,1.80
2017-10-30T02:42:07.531Z,1.90
2017-10-30T02:44:34.975Z,1.83
2017-10-30T02:47:02.422Z,1.97
2017-10-30T02:49:29.866Z,1.50
2017-10-30T02:51:57.325Z,2.60
2017-10-30T02:54:24.771Z,2.00
2017-10-30T02:56:52.236Z,2.10
2017-10-30T02:59:19.703Z,1.70
2017-10-30T03:01:47.160Z,1.90
2017-10-30T03:04:15.374Z,1.70
2017-10-30T03:06:42.865Z,1.80
2017-10-30T03:09:10.318Z,1.57
2017-10-30T03:11:37.783Z,1.43
2017-10-30T03:14:05.242Z,1.63
2017-10-30T03:16:32.693Z,1.60
2017-10-30T03:19:00.155Z,1.70
2017-10-30T03:21:27.590Z,1.40
2017-10-30T03:23:55.045Z,2.10
2017-10-30T03:26:22.504Z,1.43
2017-10-30T03:28:49.974Z,1.63
2017-10-30T03:31:17.493Z,1.93
2017-10-30T03:33:44.972Z,1.60
2017-10-30T03:36:12.410Z,1.90
2017-10-30T03:38:39.864Z,1.80
2017-10-30T03:41:07.311Z,1.60
2017-10-30T03:43:34.764Z,1.63
2017-10-30T03:46:02.205Z,2.10
2017-10-30T03:48:30.427Z,1.40
2017-10-30T03:50:57.865Z,1.87
2017-10-30T03:53:25.326Z,1.80
2017-10-30T03:55:52.781Z,1.30
2017-10-30T03:58:20.256Z,1.40
2017-10-30T04:00:49.611Z,1.20
2017-10-30T04:03:17.886Z,1.57
2017-10-30T04:05:46.086Z,1.57
2017-10-30T04:08:13.542Z,1.90
2017-10-30T04:10:40.986Z,1.83
2017-10-30T04:13:08.440Z,1.60
2017-10-30T04:15:35.885Z,1.43
2017-10-30T04:18:04.130Z,1.63
2017-10-30T04:20:31.586Z,1.50
2017-10-30T04:23:00.541Z,1.70
2017-10-30T04:25:28.005Z,1.50
2017-10-30T04:27:55.454Z,2.17
2017-10-30T04:30:22.939Z,1.60
2017-10-30T04:32:51.150Z,1.60
2017-10-30T04:35:18.606Z,2.17
2017-10-30T04:37:46.082Z,1.83
2017-10-30T04:40:13.546Z,1.60
2017-10-30T04:42:40.986Z,1.60
2017-10-30T04:45:08.439Z,1.50
2017-10-30T04:47:36.659Z,1.70
2017-10-30T04:50:04.113Z,1.83
2017-10-30T04:52:31.574Z,1.90
2017-10-30T04:54:59.025Z,1.43
2017-10-30T04:57:26.510Z,2.10
2017-10-30T04:59:53.975Z,1.23
2017-10-30T05:02:21.427Z,2.03
2017-10-30T05:04:48.897Z,1.70
2017-10-30T05:07:16.366Z,1.93
2017-10-30T05:09:43.818Z,1.80
2017-10-30T05:12:11.281Z,1.47
2017-10-30T05:14:39.530Z,1.50
2017-10-30T05:17:07.007Z,2.00
2017-10-30T05:19:35.969Z,1.87
2017-10-30T05:22:03.419Z,1.83
2017-10-30T05:24:30.883Z,2.00
2017-10-30T05:26:58.342Z,1.83
2017-10-30T05:29:25.818Z,1.80
2017-10-30T05:31:53.270Z,1.70
2017-10-30T05:34:20.721Z,1.60
2017-10-30T05:36:48.197Z,1.37
2017-10-30T05:39:17.159Z,2.17
2017-10-30T05:41:44.627Z,1.60
2017-10-30T05:44:12.840Z,1.40
2017-10-30T05:46:41.074Z,1.77
2017-10-30T05:49:08.526Z,1.40
2017-10-30T05:51:35.978Z,1.50
2017-10-30T05:54:03.421Z,1.70
2017-10-30T05:56:30.901Z,1.67
2017-10-30T05:58:58.351Z,1.03
2017-10-30T06:01:25.810Z,1.60
2017-10-30T06:03:53.262Z,1.73
2017-10-30T06:06:20.734Z,1.50
2017-10-30T06:08:48.186Z,1.53
2017-10-30T06:11:15.645Z,1.40
2017-10-30T06:13:43.106Z,1.10
2017-10-30T06:16:10.550Z,1.70
2017-10-30T06:18:38.042Z,2.00
2017-10-30T06:21:07.005Z,1.30
2017-10-30T06:23:34.506Z,1.40
2017-10-30T06:26:01.962Z,1.20
2017-10-30T06:28:30.197Z,1.53
2017-10-30T06:30:57.668Z,1.77
2017-10-30T06:33:25.891Z,1.67
2017-10-30T06:35:53.392Z,1.30
2017-10-30T06:38:20.852Z,1.90
2017-10-30T06:40:48.307Z,1.53
2017-10-30T06:43:15.771Z,1.30
2017-10-30T06:45:43.243Z,1.17
2017-10-30T06:48:11.494Z,1.60
2017-10-30T06:50:38.979Z,1.30
2017-10-30T06:53:06.466Z,1.50
2017-10-30T06:55:34.691Z,1.40
2017-10-30T06:58:02.196Z,1.00
2017-10-30T07:00:30.411Z,1.43
2017-10-30T07:02:57.912Z,1.40
2017-10-30T07:05:25.369Z,1.83
2017-10-30T07:07:52.813Z,1.87
2017-10-30T07:10:20.284Z,1.47
2017-10-30T07:12:47.758Z,1.43
2017-10-30T07:15:15.227Z,1.30
2017-10-30T07:17:42.671Z,1.30
2017-10-30T07:20:11.010Z,1.57
2017-10-30T07:22:38.590Z,1.70
2017-10-30T07:25:06.853Z,1.60
2017-10-30T07:27:34.290Z,1.40
2017-10-30T07:30:01.759Z,2.00
2017-10-30T07:32:29.226Z,1.40
2017-10-30T07:34:56.669Z,2.03
2017-10-30T07:37:24.130Z,2.13
2017-10-30T07:39:51.594Z,2.40
2017-10-30T07:42:19.042Z,1.70
2017-10-30T07:44:46.521Z,1.57
2017-10-30T07:47:13.998Z,1.63
2017-10-30T07:49:41.455Z,1.87
2017-10-30T07:52:08.903Z,1.30
2017-10-30T07:54:36.426Z,1.70
2017-10-30T07:57:03.891Z,1.17
2017-10-30T07:59:31.350Z,1.57
2017-10-30T08:01:58.812Z,2.67
2017-10-30T08:04:26.257Z,1.97
2017-10-30T08:06:53.709Z,2.00
2017-10-30T08:09:21.202Z,1.87
2017-10-30T08:11:48.659Z,2.43
2017-10-30T08:14:16.118Z,2.70
2017-10-30T08:16:44.341Z,1.93
2017-10-30T08:19:11.802Z,2.20
2017-10-30T08:21:39.257Z,2.33
2017-10-30T08:24:06.712Z,1.80
2017-10-30T08:26:34.174Z,2.27
2017-10-30T08:29:01.652Z,2.20
2017-10-30T08:31:29.093Z,2.07
2017-10-30T08:33:56.555Z,2.50
2017-10-30T08:36:24.022Z,2.53
2017-10-30T08:38:51.486Z,2.20
2017-10-30T08:41:18.924Z,2.60
2017-10-30T08:43:46.386Z,2.20
2017-10-30T08:46:13.839Z,2.17
2017-10-30T08:48:41.315Z,2.07
2017-10-30T08:51:08.768Z,1.80
2017-10-30T08:53:36.214Z,1.77
2017-10-30T08:56:03.670Z,2.40
2017-10-30T08:58:31.117Z,2.50
2017-10-30T09:00:58.571Z,2.30
2017-10-30T09:03:26.060Z,1.60
2017-10-30T09:05:53.531Z,2.40
2017-10-30T09:08:21.004Z,4.07
2017-10-30T09:10:49.226Z,3.20
2017-10-30T09:13:16.690Z,2.63
2017-10-30T09:15:44.171Z,2.63
2017-10-30T09:18:11.630Z,2.60
2017-10-30T09:20:39.084Z,2.17
2017-10-30T09:23:06.538Z,2.80
2017-10-30T09:25:34.006Z,2.83
2017-10-30T09:28:01.466Z,2.57
2017-10-30T09:30:30.444Z,2.60
2017-10-30T09:32:57.890Z,2.27
2017-10-30T09:35:25.390Z,1.93
2017-10-30T09:37:53.618Z,2.80
2017-10-30T09:40:21.090Z,2.27
2017-10-30T09:42:48.546Z,2.00
2017-10-30T09:45:16.124Z,2.27
2017-10-30T09:47:43.578Z,2.30
2017-10-30T09:50:11.035Z,2.23
2017-10-30T09:52:39.261Z,2.33
2017-10-30T09:55:06.733Z,2.40
2017-10-30T09:57:34.965Z,2.60
2017-10-30T10:00:03.241Z,2.17
2017-10-30T10:02:31.478Z,2.00
2017-10-30T10:04:58.989Z,2.27
2017-10-30T10:07:27.269Z,2.60
2017-10-30T10:09:54.713Z,2.30
2017-10-30T10:12:23.037Z,2.23
2017-10-30T10:14:50.493Z,2.33
2017-10-30T10:17:18.835Z,2.40
2017-10-30T10:19:46.290Z,2.30
2017-10-30T10:22:13.751Z,2.03
2017-10-30T10:24:41.199Z,2.37
2017-10-30T10:27:08.662Z,2.10
2017-10-30T10:29:37.081Z,2.10
2017-10-30T10:32:04.593Z,2.20
2017-10-30T10:34:33.026Z,1.60
2017-10-30T10:37:00.520Z,1.50
2017-10-30T10:39:27.997Z,1.87
2017-10-30T10:41:55.555Z,1.90
2017-10-30T10:44:23.014Z,1.83
2017-10-30T10:46:50.469Z,2.17
2017-10-30T10:49:18.718Z,2.17
2017-10-30T10:51:46.179Z,1.97
2017-10-30T10:54:13.642Z,2.27
2017-10-30T10:56:41.879Z,1.90
2017-10-30T10:59:09.366Z,1.93
2017-10-30T11:01:38.363Z,1.93
2017-10-30T11:04:05.841Z,1.73
2017-10-30T11:06:33.303Z,1.77
2017-10-30T11:09:00.769Z,1.90
2017-10-30T11:11:28.213Z,2.13
2017-10-30T11:13:55.687Z,1.40
2017-10-30T11:16:23.138Z,1.93
2017-10-30T11:18:51.804Z,1.87
2017-10-30T11:21:20.062Z,2.00
2017-10-30T11:23:47.527Z,1.90
2017-10-30T11:26:15.759Z,1.77
2017-10-30T11:28:43.446Z,1.37
2017-10-30T11:31:10.946Z,1.47
2017-10-30T11:33:38.422Z,1.47
2017-10-30T11:36:06.002Z,1.57
2017-10-30T11:38:33.489Z,1.90
2017-10-30T11:41:00.980Z,1.50
2017-10-30T11:43:28.426Z,1.77
2017-10-30T11:45:55.913Z,1.60
2017-10-30T11:48:23.357Z,1.57
2017-10-30T11:50:50.851Z,1.10
2017-10-30T11:53:18.325Z,1.50
2017-10-30T11:55:45.821Z,1.60
2017-10-30T11:58:14.048Z,1.70
2017-10-30T12:00:41.527Z,1.53
2017-10-30T12:03:09.730Z,1.40
2017-10-30T12:05:37.237Z,1.70
2017-10-30T12:08:04.710Z,1.57
2017-10-30T12:10:32.959Z,1.30
2017-10-30T12:13:00.436Z,1.70
2017-10-30T12:15:27.894Z,1.57
2017-10-30T12:17:55.358Z,1.20
2017-10-30T12:20:22.833Z,1.23
2017-10-30T12:22:51.078Z,1.67
2017-10-30T12:25:18.542Z,1.10
2017-10-30T12:27:46.009Z,1.80
2017-10-30T12:30:13.473Z,1.57
2017-10-30T12:32:40.934Z,1.30
2017-10-30T12:35:09.148Z,1.30
2017-10-30T12:37:36.600Z,1.27
2017-10-30T12:40:04.845Z,1.30
2017-10-30T12:42:32.295Z,1.50
2017-10-30T12:44:59.778Z,1.30
2017-10-30T12:47:28.011Z,1.70
2017-10-30T12:49:55.472Z,1.70
2017-10-30T12:52:22.924Z,1.40
2017-10-30T12:54:50.428Z,1.13
2017-10-30T12:57:18.657Z,1.37
2017-10-30T12:59:46.124Z,1.40
2017-10-30T13:02:13.576Z,1.50
2017-10-30T13:04:41.059Z,1.50
2017-10-30T13:07:09.294Z,1.23
2017-10-30T13:09:36.766Z,1.43
2017-10-30T13:12:04.247Z,1.60
2017-10-30T13:14:31.823Z,1.67
2017-10-30T13:16:59.284Z,1.00
2017-10-30T13:19:27.535Z,1.20
2017-10-30T13:21:54.994Z,1.50
2017-10-30T13:24:22.439Z,2.10
2017-10-30T13:26:49.956Z,1.80
2017-10-30T13:29:18.543Z,1.60
2017-10-30T13:31:46.030Z,1.57
2017-10-30T13:34:13.505Z,1.30
2017-10-30T13:36:42.498Z,1.87
2017-10-30T13:39:09.954Z,1.60
2017-10-30T13:41:37.410Z,1.50
2017-10-30T13:44:04.850Z,1.77
2017-10-30T13:46:32.318Z,1.40
2017-10-30T13:48:59.791Z,1.23
2017-10-30T13:51:27.241Z,1.37
2017-10-30T13:53:55.474Z,1.50
2017-10-30T13:56:22.937Z,1.33
2017-10-30T13:58:50.434Z,1.13
2017-10-30T14:01:17.957Z,1.30
2017-10-30T14:03:45.426Z,1.53
2017-10-30T14:06:12.916Z,1.50
2017-10-30T14:08:40.372Z,1.10
2017-10-30T14:11:08.599Z,1.13
2017-10-30T14:13:36.062Z,1.17
2017-10-30T14:16:03.507Z,1.10
2017-10-30T14:18:30.974Z,1.30
2017-10-30T14:20:58.430Z,1.13
2017-10-30T14:23:25.891Z,1.53
2017-10-30T14:25:53.334Z,1.30
2017-10-30T14:28:20.792Z,1.43
2017-10-30T14:30:48.234Z,1.20
2017-10-30T14:33:15.698Z,1.20
2017-10-30T14:35:43.138Z,1.30
2017-10-30T14:38:10.653Z,1.50
2017-10-30T14:40:38.877Z,1.13
2017-10-30T14:43:07.130Z,1.30
2017-10-30T14:45:34.586Z,1.27
2017-10-30T14:48:02.063Z,1.23
2017-10-30T14:50:30.317Z,1.17
2017-10-30T14:52:57.843Z,1.10
2017-10-30T14:55:25.293Z,1.30
2017-10-30T14:57:52.758Z,1.40
2017-10-30T15:00:20.250Z,1.30
2017-10-30T15:02:47.706Z,1.30
2017-10-30T15:05:15.174Z,1.80
2017-10-30T15:07:44.494Z,2.00
2017-10-30T15:10:12.770Z,1.33
2017-10-30T15:12:40.210Z,1.10
2017-10-30T15:15:08.440Z,1.23
2017-10-30T15:17:35.922Z,1.17
2017-10-30T15:20:03.417Z,1.47
2017-10-30T15:22:30.866Z,1.10
2017-10-30T15:24:59.102Z,1.33
2017-10-30T15:27:26.560Z,1.60
2017-10-30T15:29:54.026Z,1.70
2017-10-30T15:32:22.238Z,1.53
2017-10-30T15:34:50.505Z,1.60
2017-10-30T15:37:17.961Z,1.80
2017-10-30T15:39:46.182Z,1.53
2017-10-30T15:42:13.676Z,1.40
2017-10-30T15:44:41.131Z,1.60
2017-10-30T15:47:08.592Z,1.43
2017-10-30T15:49:36.042Z,2.23
2017-10-30T15:52:03.506Z,1.90
2017-10-30T15:54:30.966Z,1.20
2017-10-30T15:56:59.200Z,1.80
2017-10-30T15:59:26.658Z,1.50
2017-10-30T16:01:54.125Z,1.80
2017-10-30T16:04:21.581Z,1.40
2017-10-30T16:06:49.058Z,2.23
2017-10-30T16:09:17.329Z,1.90
2017-10-30T16:11:45.582Z,1.70
2017-10-30T16:14:13.050Z,2.10
2017-10-30T16:16:40.543Z,2.10
2017-10-30T16:19:08.790Z,1.83
2017-10-30T16:21:36.268Z,1.70
2017-10-30T16:24:03.726Z,1.97
2017-10-30T16:26:31.177Z,1.60
2017-10-30T16:28:58.637Z,1.77
2017-10-30T16:31:26.082Z,1.90
2017-10-30T16:33:53.549Z,2.03
2017-10-30T16:36:20.999Z,2.43
2017-10-30T16:38:48.490Z,1.80
2017-10-30T16:41:16.003Z,2.50
2017-10-30T16:43:43.459Z,2.60
2017-10-30T16:46:11.021Z,1.93
2017-10-30T16:48:38.524Z,2.37
2017-10-30T16:51:06.765Z,2.27
2017-10-30T16:53:34.234Z,2.60
2017-10-30T16:56:01.727Z,2.13
2017-10-30T16:58:29.220Z,2.33
2017-10-30T17:00:56.687Z,2.20
2017-10-30T17:03:24.162Z,2.30
2017-10-30T17:05:51.625Z,2.27
2017-10-30T17:08:19.098Z,2.00
2017-10-30T17:10:47.727Z,2.47
2017-10-30T17:13:15.222Z,2.83
2017-10-30T17:15:42.694Z,2.50
2017-10-30T17:18:10.929Z,2.20
2017-10-30T17:20:38.393Z,2.67
2017-10-30T17:23:05.843Z,2.90
2017-10-30T17:25:33.323Z,2.83
2017-10-30T17:28:00.801Z,2.70
2017-10-30T17:30:29.042Z,2.60
2017-10-30T17:32:56.506Z,2.60
2017-10-30T17:35:27.107Z,2.27
2017-10-30T17:37:54.598Z,2.37
2017-10-30T17:40:22.070Z,2.50
2017-10-30T17:42:50.294Z,2.47
2017-10-30T17:45:17.782Z,2.63
2017-10-30T17:47:45.246Z,2.20
2017-10-30T17:50:12.717Z,2.97
2017-10-30T17:52:40.179Z,3.00
2017-10-30T17:55:07.637Z,2.00
2017-10-30T17:57:35.884Z,2.77
2017-10-30T18:00:03.359Z,2.87
2017-10-30T18:02:30.811Z,2.77
2017-10-30T18:04:58.288Z,2.90
2017-10-30T18:07:26.514Z,3.47
2017-10-30T18:09:54.734Z,2.63
2017-10-30T18:12:22.234Z,2.30
2017-10-30T18:14:49.680Z,2.20
2017-10-30T18:17:17.921Z,2.70
2017-10-30T18:19:46.164Z,2.70
2017-10-30T18:22:19.230Z,3.60
2017-10-30T18:24:46.706Z,3.47
2017-10-30T18:27:14.163Z,2.37
2017-10-30T18:29:41.626Z,2.33
2017-10-30T18:32:09.112Z,2.83
2017-10-30T18:34:36.604Z,2.67
2017-10-30T18:37:04.071Z,2.60
2017-10-30T18:39:31.517Z,2.50
2017-10-30T18:41:59.082Z,2.63
2017-10-30T18:44:26.537Z,2.43
2017-10-30T18:46:54.019Z,2.50
2017-10-30T18:49:21.482Z,2.53
2017-10-30T18:51:48.950Z,2.50
2017-10-30T18:54:16.425Z,2.60
2017-10-30T18:56:43.998Z,2.80
2017-10-30T18:59:11.515Z,2.67
2017-10-30T19:01:39.731Z,2.87
2017-10-30T19:04:07.189Z,2.60
2017-10-30T19:06:34.693Z,3.10
2017-10-30T19:09:02.150Z,2.90
2017-10-30T19:11:29.621Z,2.50
2017-10-30T19:13:57.077Z,2.77
2017-10-30T19:16:25.306Z,2.70
2017-10-30T19:18:52.773Z,2.83
2017-10-30T19:21:21.153Z,3.00
2017-10-30T19:23:49.370Z,3.30
2017-10-30T19:26:16.823Z,3.10
2017-10-30T19:28:44.298Z,3.10
2017-10-30T19:31:11.748Z,3.37
2017-10-30T19:33:39.209Z,4.47
2017-10-30T19:36:06.659Z,3.53
2017-10-30T19:38:34.111Z,3.37
2017-10-30T19:41:01.561Z,4.30
2017-10-30T19:43:30.014Z,4.00
2017-10-30T19:45:57.469Z,4.03
2017-10-30T19:48:25.691Z,4.37
2017-10-30T19:50:53.141Z,3.90
2017-10-30T19:53:20.595Z,3.37
2017-10-30T19:55:48.063Z,3.90
2017-10-30T19:58:15.534Z,3.57
2017-10-30T20:00:43.015Z,3.80
2017-10-30T20:03:10.450Z,3.30
2017-10-30T20:05:43.510Z,3.70
2017-10-30T20:08:16.602Z,5.20
2017-10-30T20:10:49.789Z,6.40
2017-10-30T20:13:17.250Z,6.40
2017-10-30T20:15:44.714Z,6.27
2017-10-30T20:18:12.163Z,6.70
2017-10-30T20:20:39.636Z,7.80
2017-10-30T20:23:07.130Z,8.23
2017-10-30T20:25:34.689Z,8.73
2017-10-30T20:28:02.933Z,8.33
2017-10-30T20:30:30.393Z,9.93
2017-10-30T20:32:57.875Z,10.27
2017-10-30T20:35:25.347Z,10.63
2017-10-30T20:37:53.583Z,9.93
2017-10-30T20:40:21.046Z,11.43
2017-10-30T20:42:48.526Z,10.07
2017-10-30T20:45:15.982Z,10.50
2017-10-30T20:47:44.238Z,10.47
2017-10-30T20:50:11.725Z,10.70
2017-10-30T20:52:39.966Z,10.27
2017-10-30T20:55:07.417Z,11.67
2017-10-30T20:57:34.895Z,10.60
2017-10-30T21:00:03.161Z,11.37
2017-10-30T21:02:30.618Z,11.57
2017-10-30T21:04:58.846Z,11.93
2017-10-30T21:07:26.325Z,12.70
2017-10-30T21:09:53.796Z,12.13
2017-10-30T21:12:21.272Z,11.77
2017-10-30T21:14:48.728Z,13.07
2017-10-30T21:17:16.819Z,11.57
2017-10-30T21:19:44.270Z,12.80
2017-10-30T21:22:11.738Z,11.67
2017-10-30T21:24:39.195Z,12.73
2017-10-30T21:27:07.462Z,12.00
2017-10-30T21:29:36.790Z,11.93
2017-10-30T21:32:05.047Z,12.20
2017-10-30T21:34:32.508Z,12.33
2017-10-30T21:37:00.735Z,12.73
2017-10-30T21:39:28.198Z,11.70
2017-10-30T21:41:55.653Z,12.53
2017-10-30T21:44:23.126Z,12.60
2017-10-30T21:46:50.588Z,12.33
2017-10-30T21:49:18.072Z,13.07
2017-10-30T21:51:45.549Z,12.23
2017-10-30T21:54:13.797Z,11.70
2017-10-30T21:56:42.026Z,12.90
2017-10-30T21:59:09.503Z,12.40
2017-10-30T22:01:36.963Z,12.77
2017-10-30T22:04:04.430Z,13.40
2017-10-30T22:06:31.877Z,12.70
2017-10-30T22:08:59.525Z,12.90
2017-10-30T22:11:28.015Z,13.60
2017-10-30T22:13:55.502Z,12.37
2017-10-30T22:16:22.955Z,11.83
2017-10-30T22:18:50.514Z,14.10
2017-10-30T22:21:17.969Z,13.10
2017-10-30T22:23:45.416Z,11.60
2017-10-30T22:26:12.883Z,12.30
2017-10-30T22:28:40.330Z,12.20
2017-10-30T22:31:07.794Z,11.90
2017-10-30T22:33:35.254Z,12.13
2017-10-30T22:36:02.722Z,11.90
2017-10-30T22:38:30.513Z,12.33
2017-10-30T22:40:58.780Z,10.57
2017-10-30T22:43:26.234Z,11.80
2017-10-30T22:45:54.529Z,11.77
2017-10-30T22:48:22.041Z,11.93
2017-10-30T22:50:49.518Z,11.33
2017-10-30T22:53:17.771Z,11.07
2017-10-30T22:55:45.229Z,11.73
2017-10-30T22:58:12.690Z,10.07
2017-10-30T23:00:40.149Z,11.50
2017-10-30T23:03:07.645Z,11.87
2017-10-30T23:05:35.095Z,10.57
2017-10-30T23:08:02.559Z,10.67
2017-10-30T23:10:30.012Z,10.67
2017-10-30T23:12:57.532Z,10.07
2017-10-30T23:15:25.162Z,10.77
2017-10-30T23:17:52.790Z,10.13
2017-10-30T23:20:21.249Z,10.43
2017-10-30T23:22:48.707Z,10.33
2017-10-30T23:25:16.158Z,10.00
2017-10-30T23:27:43.614Z,10.03
2017-10-30T23:30:11.107Z,10.43
2017-10-30T23:32:38.572Z,9.73
2017-10-30T23:35:06.157Z,9.97
2017-10-30T23:37:33.605Z,9.73
2017-10-30T23:40:01.066Z,9.20
2017-10-30T23:42:28.529Z,9.33
2017-10-30T23:44:55.998Z,9.90
2017-10-30T23:47:23.478Z,9.57
2017-10-30T23:49:51.729Z,8.80
2017-10-30T23:52:19.185Z,8.53
2017-10-30T23:54:46.658Z,8.97
2017-10-30T23:57:14.116Z,8.93
2017-10-30T23:59:41.585Z,9.10
